createdAt,value
2018-07-19T00:00:11.069Z,19.30
2018-07-19T00:02:39.580Z,19.30
2018-07-19T00:05:08.102Z,19.30
2018-07-19T00:07:36.616Z,19.30
2018-07-19T00:10:05.420Z,19.20
2018-07-19T00:12:33.956Z,19.20
2018-07-19T00:15:02.742Z,19.20
2018-07-19T00:17:31.351Z,19.10
2018-07-19T00:19:59.891Z,19.10
2018-07-19T00:22:28.464Z,19.10
2018-07-19T00:24:57.095Z,19.00
2018-07-19T00:27:27.569Z,19.00
2018-07-19T00:29:56.400Z,19.00
2018-07-19T00:32:25.610Z,19.00
2018-07-19T00:34:54.087Z,18.90
2018-07-19T00:37:22.657Z,18.90
2018-07-19T00:39:51.132Z,18.90
2018-07-19T00:42:20.563Z,18.90
2018-07-19T00:44:49.092Z,18.90
2018-07-19T00:47:17.627Z,18.90
2018-07-19T00:49:46.106Z,18.90
2018-07-19T00:52:14.610Z,18.90
2018-07-19T00:54:43.445Z,18.90
2018-07-19T00:57:12.971Z,18.80
2018-07-19T00:59:41.441Z,18.80
2018-07-19T01:02:09.926Z,18.80
2018-07-19T01:04:38.452Z,18.80
2018-07-19T01:07:07.007Z,18.80
2018-07-19T01:09:35.578Z,18.80
2018-07-19T01:12:04.150Z,18.70
2018-07-19T01:14:32.705Z,18.70
2018-07-19T01:17:01.231Z,18.70
2018-07-19T01:19:30.004Z,18.70
2018-07-19T01:21:58.692Z,18.70
2018-07-19T01:24:27.340Z,18.70
2018-07-19T01:26:56.660Z,18.70
2018-07-19T01:29:25.165Z,18.70
2018-07-19T01:31:53.604Z,18.70
2018-07-19T01:34:22.153Z,18.70
2018-07-19T01:36:50.674Z,18.70
2018-07-19T01:39:19.333Z,18.70
2018-07-19T01:42:26.187Z,18.70
2018-07-19T01:44:54.890Z,18.60
2018-07-19T01:47:23.478Z,18.60
2018-07-19T01:49:51.974Z,18.60
2018-07-19T01:52:20.595Z,18.50
2018-07-19T01:54:49.148Z,18.50
2018-07-19T01:57:19.466Z,18.50
2018-07-19T01:59:48.577Z,18.50
2018-07-19T02:02:18.616Z,18.60
2018-07-19T02:04:47.161Z,18.60
2018-07-19T02:07:15.837Z,18.60
2018-07-19T02:09:44.419Z,18.50
2018-07-19T02:12:12.939Z,18.50
2018-07-19T02:14:41.583Z,18.40
2018-07-19T02:17:10.132Z,18.40
2018-07-19T02:19:38.699Z,18.40
2018-07-19T02:22:07.234Z,18.30
2018-07-19T02:24:35.771Z,18.30
2018-07-19T02:27:04.397Z,18.30
2018-07-19T02:29:32.962Z,18.30
2018-07-19T02:32:02.416Z,18.20
2018-07-19T02:34:30.978Z,18.20
2018-07-19T02:36:59.501Z,18.20
2018-07-19T02:39:28.014Z,18.10
2018-07-19T02:41:56.546Z,18.10
2018-07-19T02:44:25.077Z,18.10
2018-07-19T02:46:53.619Z,18.10
2018-07-19T02:49:22.103Z,18.10
2018-07-19T02:51:50.669Z,18.00
2018-07-19T02:54:19.277Z,18.00
2018-07-19T02:56:47.865Z,18.00
2018-07-19T02:59:16.413Z,18.00
2018-07-19T03:01:45.020Z,18.00
2018-07-19T03:04:13.599Z,18.00
2018-07-19T03:06:42.168Z,17.90
2018-07-19T03:11:38.964Z,17.90
2018-07-19T03:14:07.499Z,17.90
2018-07-19T03:16:36.073Z,17.90
2018-07-19T03:19:04.629Z,17.80
2018-07-19T03:21:33.216Z,17.80
2018-07-19T03:24:02.786Z,17.80
2018-07-19T03:26:31.300Z,17.80
2018-07-19T03:28:59.858Z,17.80
2018-07-19T03:31:28.429Z,17.70
2018-07-19T03:33:57.086Z,17.70
2018-07-19T03:36:25.576Z,17.70
2018-07-19T03:38:54.076Z,17.70
2018-07-19T03:41:22.586Z,17.60
2018-07-19T03:43:51.134Z,17.60
2018-07-19T03:46:19.656Z,17.50
2018-07-19T03:48:48.137Z,17.40
2018-07-19T03:51:16.756Z,17.40
2018-07-19T03:53:45.433Z,17.40
2018-07-19T03:56:13.922Z,17.40
2018-07-19T03:58:43.341Z,17.40
2018-07-19T04:01:11.860Z,17.40
2018-07-19T04:03:40.343Z,17.30
2018-07-19T04:06:08.979Z,17.30
2018-07-19T04:08:37.499Z,17.30
2018-07-19T04:11:06.032Z,17.30
2018-07-19T04:13:34.603Z,17.40
2018-07-19T04:16:03.587Z,17.40
2018-07-19T04:18:32.083Z,17.50
2018-07-19T04:21:00.630Z,17.50
2018-07-19T04:23:29.207Z,17.50
2018-07-19T04:25:57.677Z,17.60
2018-07-19T04:28:26.151Z,17.50
2018-07-19T04:30:54.672Z,17.50
2018-07-19T04:33:23.265Z,17.50
2018-07-19T04:35:51.948Z,17.60
2018-07-19T04:38:20.728Z,17.60
2018-07-19T04:40:49.138Z,17.60
2018-07-19T04:43:17.636Z,17.60
2018-07-19T04:45:46.171Z,17.60
2018-07-19T04:48:14.678Z,17.70
2018-07-19T04:50:43.189Z,17.70
2018-07-19T04:53:11.734Z,17.70
2018-07-19T04:55:40.280Z,17.70
2018-07-19T04:58:09.140Z,17.80
2018-07-19T05:00:37.611Z,17.80
2018-07-19T05:03:06.338Z,17.80
2018-07-19T05:05:34.858Z,17.80
2018-07-19T05:08:03.786Z,17.90
2018-07-19T05:10:32.258Z,17.90
2018-07-19T05:13:01.655Z,18.00
2018-07-19T05:15:30.174Z,18.00
2018-07-19T05:17:58.636Z,18.00
2018-07-19T05:20:27.099Z,18.10
2018-07-19T05:22:55.626Z,18.10
2018-07-19T05:25:24.170Z,18.10
2018-07-19T05:27:52.787Z,18.20
2018-07-19T05:30:21.332Z,18.20
2018-07-19T05:32:49.925Z,18.20
2018-07-19T05:35:18.906Z,18.20
2018-07-19T05:37:49.198Z,18.20
2018-07-19T05:40:18.827Z,18.30
2018-07-19T05:42:49.100Z,18.30
2018-07-19T05:45:18.614Z,18.30
2018-07-19T05:47:47.161Z,18.30
2018-07-19T05:50:15.793Z,18.20
2018-07-19T05:52:44.311Z,18.20
2018-07-19T05:55:13.491Z,18.30
2018-07-19T05:57:42.099Z,18.30
2018-07-19T06:00:10.843Z,18.30
2018-07-19T06:02:39.930Z,18.30
2018-07-19T06:05:08.610Z,18.30
2018-07-19T06:07:37.174Z,18.50
2018-07-19T06:10:05.806Z,18.50
2018-07-19T06:12:34.500Z,18.50
2018-07-19T06:15:03.058Z,18.60
2018-07-19T06:17:31.678Z,18.60
2018-07-19T06:20:00.543Z,18.80
2018-07-19T06:22:29.242Z,18.90
2018-07-19T06:24:57.839Z,19.00
2018-07-19T06:27:27.342Z,19.00
2018-07-19T06:29:55.920Z,19.00
2018-07-19T06:32:24.483Z,19.00
2018-07-19T06:34:53.256Z,19.10
2018-07-19T06:37:22.141Z,19.20
2018-07-19T06:39:50.683Z,19.40
2018-07-19T06:42:19.450Z,19.60
2018-07-19T06:44:47.982Z,19.70
2018-07-19T06:47:16.458Z,19.70
2018-07-19T06:49:45.067Z,19.70
2018-07-19T06:52:13.668Z,19.80
2018-07-19T06:54:42.322Z,20.00
2018-07-19T06:57:10.815Z,20.10
2018-07-19T06:59:39.561Z,20.20
2018-07-19T07:04:37.159Z,20.40
2018-07-19T07:07:06.203Z,20.50
2018-07-19T07:09:34.854Z,20.60
2018-07-19T07:12:03.346Z,20.70
2018-07-19T07:14:31.917Z,20.80
2018-07-19T07:17:00.563Z,20.90
2018-07-19T07:19:29.126Z,21.10
2018-07-19T07:21:57.725Z,21.20
2018-07-19T07:27:17.607Z,21.50
2018-07-19T07:29:46.106Z,21.60
2018-07-19T07:32:14.855Z,21.70
2018-07-19T07:34:43.420Z,21.80
2018-07-19T07:37:12.105Z,21.90
2018-07-19T07:39:40.606Z,22.00
2018-07-19T07:42:09.156Z,22.10
2018-07-19T07:44:37.660Z,22.20
2018-07-19T07:47:06.547Z,22.30
2018-07-19T07:49:35.033Z,22.40
2018-07-19T07:52:03.577Z,22.50
2018-07-19T07:54:32.146Z,22.60
2018-07-19T07:57:00.719Z,22.60
2018-07-19T07:59:29.304Z,22.70
2018-07-19T08:01:57.869Z,22.80
2018-07-19T08:04:26.514Z,22.90
2018-07-19T08:06:55.378Z,22.90
2018-07-19T08:09:24.004Z,23.00
2018-07-19T08:11:55.355Z,23.10
2018-07-19T08:14:24.591Z,23.20
2018-07-19T08:16:53.227Z,23.30
2018-07-19T08:19:21.792Z,23.60
2018-07-19T08:21:50.392Z,23.80
2018-07-19T08:24:19.123Z,23.90
2018-07-19T08:26:47.779Z,24.00
2018-07-19T08:29:21.071Z,24.10
2018-07-19T08:31:52.431Z,24.20
2018-07-19T08:34:21.712Z,24.30
2018-07-19T08:36:50.272Z,24.20
2018-07-19T08:39:18.900Z,24.30
2018-07-19T08:41:48.345Z,24.40
2018-07-19T08:44:16.825Z,24.60
2018-07-19T08:46:45.382Z,24.80
2018-07-19T08:49:14.093Z,24.90
2018-07-19T08:51:42.752Z,24.80
2018-07-19T08:54:11.302Z,24.80
2018-07-19T08:56:39.855Z,24.80
2018-07-19T08:59:08.820Z,25.00
2018-07-19T09:01:37.351Z,25.00
2018-07-19T09:04:05.978Z,25.20
2018-07-19T09:06:34.520Z,25.30
2018-07-19T09:09:03.173Z,25.50
2018-07-19T09:11:31.883Z,25.60
2018-07-19T09:14:01.068Z,25.70
2018-07-19T09:16:29.564Z,25.80
2018-07-19T09:18:58.176Z,25.90
2018-07-19T09:21:26.654Z,26.10
2018-07-19T09:23:55.297Z,26.20
2018-07-19T09:26:23.856Z,26.40
2018-07-19T09:28:52.455Z,26.40
2018-07-19T10:44:28.166Z,28.10
2018-07-19T10:46:56.626Z,28.20
2018-07-19T10:49:25.193Z,28.30
2018-07-19T10:57:53.721Z,28.80
2018-07-19T11:00:22.301Z,29.20
2018-07-19T11:02:50.957Z,29.50
2018-07-19T11:05:19.804Z,29.50
2018-07-19T11:07:48.316Z,29.60
2018-07-19T11:10:16.895Z,29.60
2018-07-19T11:12:45.376Z,29.70
2018-07-19T11:15:14.002Z,29.90
2018-07-19T11:17:42.508Z,30.00
2018-07-19T11:20:11.024Z,30.20
2018-07-19T11:22:39.504Z,30.50
2018-07-19T11:25:08.049Z,30.50
2018-07-19T11:27:39.379Z,30.60
2018-07-19T11:30:08.001Z,30.70
2018-07-19T11:32:36.574Z,30.90
2018-07-19T11:35:05.047Z,31.10
2018-07-19T11:37:33.877Z,31.30
2018-07-19T11:40:02.377Z,31.40
2018-07-19T11:42:30.875Z,31.50
2018-07-19T11:44:59.368Z,31.50
2018-07-19T11:47:27.882Z,31.50
2018-07-19T11:49:56.399Z,31.50
2018-07-19T11:52:24.870Z,31.50
2018-07-19T11:54:53.359Z,31.40
2018-07-19T11:57:21.819Z,31.30
2018-07-19T11:59:50.268Z,31.50
2018-07-19T12:02:18.771Z,31.50
2018-07-19T12:04:47.312Z,31.30
2018-07-19T12:07:15.956Z,31.10
2018-07-19T12:09:44.460Z,31.20
2018-07-19T12:12:13.060Z,31.50
2018-07-19T12:14:41.548Z,32.50
2018-07-19T12:17:10.046Z,33.90
2018-07-19T12:19:38.695Z,35.60
2018-07-19T12:22:07.321Z,37.10
2018-07-19T12:24:35.784Z,38.40
2018-07-19T12:27:04.360Z,39.40
2018-07-19T12:29:33.912Z,39.10
2018-07-19T12:32:02.458Z,39.30
2018-07-19T12:34:31.063Z,39.80
2018-07-19T12:36:59.663Z,40.20
2018-07-19T12:39:28.191Z,40.40
2018-07-19T12:41:56.791Z,40.80
2018-07-19T12:44:25.317Z,41.00
2018-07-19T12:46:54.811Z,41.50
2018-07-19T12:49:23.835Z,41.80
2018-07-19T12:51:52.929Z,42.00
2018-07-19T12:54:21.538Z,41.80
2018-07-19T12:56:50.139Z,40.30
2018-07-19T12:59:18.759Z,38.70
2018-07-19T13:01:49.627Z,37.70
2018-07-19T13:04:20.731Z,37.00
2018-07-19T13:06:49.276Z,36.50
2018-07-19T13:09:17.826Z,36.20
2018-07-19T13:11:46.436Z,36.70
2018-07-19T13:14:15.941Z,37.50
2018-07-19T13:16:44.616Z,39.00
2018-07-19T13:19:13.115Z,40.40
2018-07-19T13:21:41.570Z,41.60
2018-07-19T13:24:10.177Z,42.20
2018-07-19T13:26:38.739Z,42.50
2018-07-19T13:29:07.321Z,43.20
2018-07-19T13:31:35.838Z,43.70
2018-07-19T13:34:04.316Z,43.90
2018-07-19T13:36:32.925Z,44.00
2018-07-19T13:39:01.379Z,44.00
2018-07-19T13:41:30.756Z,43.70
2018-07-19T13:43:59.283Z,42.90
2018-07-19T13:46:27.721Z,41.80
2018-07-19T13:48:56.158Z,41.30
2018-07-19T13:51:24.675Z,41.20
2018-07-19T13:54:45.420Z,40.60
2018-07-19T13:57:13.887Z,39.10
2018-07-19T13:59:42.487Z,37.70
2018-07-19T14:02:11.680Z,37.60
2018-07-19T14:04:40.407Z,38.10
2018-07-19T14:07:08.937Z,38.60
2018-07-19T14:09:37.432Z,39.30
2018-07-19T14:12:06.057Z,38.90
2018-07-19T14:14:34.607Z,39.00
2018-07-19T14:17:03.171Z,39.40
2018-07-19T14:19:31.683Z,39.00
2018-07-19T14:22:00.267Z,38.40
2018-07-19T14:24:28.965Z,37.20
2018-07-19T14:26:57.555Z,36.90
2018-07-19T14:29:28.291Z,36.10
2018-07-19T14:34:26.432Z,34.80
2018-07-19T14:36:55.398Z,34.20
2018-07-19T14:39:24.437Z,34.30
2018-07-19T14:41:53.587Z,34.10
2018-07-19T14:44:22.084Z,33.90
2018-07-19T14:46:50.544Z,34.20
2018-07-19T14:49:19.102Z,34.00
2018-07-19T14:51:47.643Z,33.30
2018-07-19T14:54:16.155Z,33.00
2018-07-19T14:56:44.815Z,33.10
2018-07-19T14:59:13.271Z,33.20
2018-07-19T15:01:41.835Z,33.40
2018-07-19T15:04:11.466Z,33.70
2018-07-19T15:06:40.226Z,33.60
2018-07-19T15:09:11.112Z,33.60
2018-07-19T15:11:40.006Z,33.60
2018-07-19T15:14:08.532Z,33.70
2018-07-19T15:16:37.058Z,33.80
2018-07-19T15:19:05.722Z,33.70
2018-07-19T15:21:34.280Z,34.10
2018-07-19T15:24:02.799Z,34.80
2018-07-19T15:26:31.266Z,35.60
2018-07-19T15:28:59.753Z,35.90
2018-07-19T15:31:28.240Z,35.80
2018-07-19T15:33:56.689Z,35.70
2018-07-19T15:36:25.714Z,35.40
2018-07-19T15:38:54.173Z,34.70
2018-07-19T15:41:22.666Z,34.00
2018-07-19T15:43:51.166Z,33.60
2018-07-19T15:46:19.668Z,33.30
2018-07-19T15:48:48.279Z,33.20
2018-07-19T15:51:16.842Z,33.00
2018-07-19T15:53:46.263Z,32.80
2018-07-19T15:56:14.724Z,32.80
2018-07-19T15:58:43.272Z,32.60
2018-07-19T16:01:11.795Z,32.30
2018-07-19T16:03:40.566Z,32.00
2018-07-19T16:06:09.058Z,31.70
2018-07-19T16:08:37.588Z,31.60
2018-07-19T16:11:06.766Z,31.60
2018-07-19T16:13:35.227Z,31.70
2018-07-19T16:16:03.840Z,31.80
2018-07-19T16:18:32.482Z,31.80
2018-07-19T16:21:00.938Z,31.70
2018-07-19T16:23:29.459Z,31.60
2018-07-19T16:25:58.008Z,31.60
2018-07-19T16:28:26.532Z,31.50
2018-07-19T16:30:55.022Z,31.50
2018-07-19T16:33:23.476Z,31.30
2018-07-19T16:35:51.973Z,31.30
2018-07-19T16:38:20.476Z,31.30
2018-07-19T16:40:49.504Z,31.30
2018-07-19T16:43:17.942Z,31.30
2018-07-19T16:45:46.976Z,31.40
2018-07-19T16:48:17.338Z,31.50
2018-07-19T16:50:46.138Z,31.80
2018-07-19T16:53:14.643Z,32.00
2018-07-19T16:55:43.208Z,32.10
2018-07-19T16:58:11.884Z,32.20
2018-07-19T17:00:40.361Z,32.40
2018-07-19T17:03:08.855Z,32.80
2018-07-19T17:05:37.575Z,32.90
2018-07-19T17:08:06.180Z,32.90
2018-07-19T17:10:34.716Z,32.90
2018-07-19T17:13:04.155Z,32.80
2018-07-19T17:15:32.685Z,32.80
2018-07-19T17:18:01.161Z,32.30
2018-07-19T17:20:30.110Z,31.90
2018-07-19T17:22:58.811Z,31.80
2018-07-19T17:25:27.293Z,31.90
2018-07-19T17:30:24.824Z,32.80
2018-07-19T17:32:53.495Z,32.70
2018-07-19T17:35:22.032Z,32.90
2018-07-19T17:37:50.546Z,33.10
2018-07-19T17:40:19.157Z,33.20
2018-07-19T17:42:47.714Z,32.80
2018-07-19T17:45:16.208Z,32.00
2018-07-19T17:47:44.831Z,31.30
2018-07-19T17:50:13.458Z,30.80
2018-07-19T17:52:42.012Z,30.30
2018-07-19T17:55:12.149Z,29.90
2018-07-19T17:57:40.761Z,29.60
2018-07-19T18:00:09.313Z,29.40
2018-07-19T18:02:37.813Z,29.40
2018-07-19T18:05:06.529Z,29.70
2018-07-19T18:07:35.105Z,30.40
2018-07-19T18:10:03.836Z,31.30
2018-07-19T18:12:32.395Z,31.70
2018-07-19T18:15:00.903Z,31.50
2018-07-19T18:19:57.711Z,30.80
2018-07-19T18:22:26.304Z,30.70
2018-07-19T18:24:54.843Z,30.30
2018-07-19T18:27:23.327Z,29.80
2018-07-19T18:29:51.928Z,29.20
2018-07-19T18:32:20.429Z,28.70
2018-07-19T18:34:49.428Z,28.30
2018-07-19T18:37:18.076Z,27.90
2018-07-19T18:39:46.680Z,27.50
2018-07-19T18:42:15.208Z,27.20
2018-07-19T18:44:43.774Z,27.00
2018-07-19T18:47:13.466Z,26.70
2018-07-19T18:49:42.062Z,26.50
2018-07-19T18:52:10.607Z,26.40
2018-07-19T18:54:41.457Z,26.30
2018-07-19T18:57:12.442Z,26.10
2018-07-19T18:59:42.481Z,26.00
2018-07-19T19:02:12.773Z,25.90
2018-07-19T19:04:41.325Z,25.80
2018-07-19T19:07:09.891Z,25.70
2018-07-19T19:09:38.399Z,25.60
2018-07-19T19:12:07.157Z,25.50
2018-07-19T19:14:35.904Z,25.40
2018-07-19T19:17:04.442Z,25.40
2018-07-19T19:19:32.976Z,25.30
2018-07-19T19:22:01.554Z,25.20
2018-07-19T19:24:30.094Z,25.20
2018-07-19T19:26:58.620Z,25.10
2018-07-19T19:29:27.377Z,25.10
2018-07-19T19:31:55.907Z,25.00
2018-07-19T19:34:24.504Z,25.00
2018-07-19T19:36:53.074Z,25.00
2018-07-19T19:39:21.673Z,24.90
2018-07-19T19:41:50.457Z,24.80
2018-07-19T19:44:18.969Z,24.80
2018-07-19T19:46:47.531Z,24.70
2018-07-19T19:49:16.161Z,24.70
2018-07-19T19:51:47.334Z,24.70
2018-07-19T19:54:16.146Z,24.60
2018-07-19T19:56:46.040Z,24.60
2018-07-19T19:59:14.553Z,24.60
2018-07-19T20:01:43.133Z,24.50
2018-07-19T20:04:14.651Z,24.50
2018-07-19T20:06:44.257Z,24.50
2018-07-19T20:09:16.369Z,24.40
2018-07-19T20:11:44.920Z,24.30
2018-07-19T20:14:14.454Z,24.30
2018-07-19T20:16:44.065Z,24.20
2018-07-19T20:19:13.188Z,24.10
2018-07-19T20:21:41.850Z,23.90
2018-07-19T20:24:10.460Z,23.80
2018-07-19T20:26:39.233Z,23.70
2018-07-19T20:29:08.458Z,23.60
2018-07-19T20:31:37.032Z,23.50
2018-07-19T20:34:05.664Z,23.30
2018-07-19T20:36:34.737Z,23.20
2018-07-19T20:39:03.667Z,23.10
2018-07-19T20:41:32.186Z,23.00
2018-07-19T20:44:00.733Z,22.80
2018-07-19T20:46:29.559Z,22.70
2018-07-19T20:48:58.172Z,22.70
2018-07-19T20:53:55.998Z,22.60
2018-07-19T20:56:24.578Z,22.60
2018-07-19T20:58:53.164Z,22.60
2018-07-19T21:01:21.783Z,22.60
2018-07-19T21:03:50.567Z,22.60
2018-07-19T21:06:19.245Z,22.50
2018-07-19T21:08:48.684Z,22.50
2018-07-19T21:11:17.707Z,22.40
2018-07-19T21:13:46.882Z,22.30
2018-07-19T21:16:15.384Z,22.20
2018-07-19T21:18:44.101Z,22.10
2018-07-19T21:21:17.497Z,22.00
2018-07-19T21:23:46.012Z,22.00
2018-07-19T21:26:14.597Z,22.00
2018-07-19T21:28:51.615Z,22.00
2018-07-19T21:31:20.824Z,21.90
2018-07-19T21:33:49.441Z,21.80
2018-07-19T21:36:23.361Z,21.80
2018-07-19T21:38:52.342Z,21.70
2018-07-19T21:41:28.063Z,21.70
2018-07-19T21:46:27.355Z,21.50
2018-07-19T21:48:55.880Z,21.40
2018-07-19T21:51:24.879Z,21.40
2018-07-19T21:53:53.562Z,21.30
2018-07-19T21:56:24.575Z,21.20
2018-07-19T21:58:53.335Z,21.10
2018-07-19T22:01:24.969Z,21.00
2018-07-19T22:03:53.559Z,21.00
2018-07-19T22:06:22.585Z,21.00
2018-07-19T22:08:52.069Z,21.00
2018-07-19T22:11:20.731Z,20.90
2018-07-19T22:13:49.359Z,20.90
2018-07-19T22:16:17.993Z,20.90
2018-07-19T22:18:46.576Z,20.90
2018-07-19T22:21:16.399Z,20.80
2018-07-19T22:23:44.930Z,20.80
2018-07-19T22:26:13.517Z,20.70
2018-07-19T22:28:42.305Z,20.70
2018-07-19T22:31:10.902Z,20.60
2018-07-19T22:33:39.453Z,20.60
2018-07-19T22:38:37.489Z,20.60
2018-07-19T22:41:06.419Z,20.60
2018-07-19T22:43:34.966Z,20.70
2018-07-19T22:46:03.583Z,20.80
2018-07-19T22:48:32.151Z,20.80
2018-07-19T22:51:00.684Z,20.80
2018-07-19T22:53:29.191Z,20.80
2018-07-19T22:55:58.039Z,20.80
2018-07-19T22:58:26.646Z,20.80
2018-07-19T23:00:55.144Z,20.70
2018-07-19T23:03:23.752Z,20.60
2018-07-19T23:05:52.276Z,20.50
2018-07-19T23:08:20.794Z,20.40
2018-07-19T23:10:49.827Z,20.30
2018-07-19T23:13:18.385Z,20.20
2018-07-19T23:15:46.997Z,20.10
2018-07-19T23:18:15.546Z,20.10
2018-07-19T23:20:44.090Z,20.10
2018-07-19T23:23:13.534Z,20.00
2018-07-19T23:25:42.056Z,20.10
2018-07-19T23:28:10.593Z,20.00
2018-07-19T23:30:39.584Z,20.00
2018-07-19T23:33:14.408Z,20.00
2018-07-19T23:35:51.180Z,19.90
2018-07-19T23:38:24.853Z,19.80
2018-07-19T23:40:54.735Z,19.80
2018-07-19T23:43:26.247Z,19.80
2018-07-19T23:46:02.228Z,19.70
2018-07-19T23:48:30.772Z,19.70
2018-07-19T23:50:59.280Z,19.70
2018-07-19T23:53:27.832Z,19.70
2018-07-19T23:55:56.336Z,19.70
2018-07-19T23:58:24.881Z,19.70
